Terminal Aerodrome Forecast
Issued by NWS

Home | Current Version | Previous Version | Text Only | Print | Product List | Glossary On
Versions: 1 2 3 4 5 6 7 8 9 10 11 12 13 14 15
674
FTUS46 KMTR 271731
TAFSTS
TAF
KSTS 271731Z 2718/2818 VRB03KT P6SM OVC015
     FM271900 17009KT P6SM FEW016
      TEMPO 2719/2720 BKN016
     FM272200 17010KT P6SM SKC
     FM280400 14005KT P6SM BKN014
     FM280800 VRB03KT P6SM OVC011
     FM281200 VRB02KT P6SM OVC008
     FM281700 VRB03KT P6SM BKN010=

USA.gov is the U.S. government's official web portal to all federal, state and local government web resources and services.